Whon, Texas
Current Conditions -  °F | °C
As of 12:35 AM on Friday 19 Dec 2014 (Local Time) from KCOM Reporting Station
Overcast Overcast  
Wind Chill: 44°   Ceiling: 900
Heat Index: 48°   Visibility: 10mi
Dew Point: 46°   Wind: 9mph
Humidity: 90%   Direction: 70°ENE
Pressure: 30.12"   Gusts: NA
Location:  31.6351°N, 99.3118°W
Report Text: KCOM 190635Z AUTO 07008KT 10SM OVC009 09/08 A3012 RMK AO2 T00910075
Loading
Personal Weather Stations






























Interactive Weather Map New forecast layout! Learn more

10-Day Weather Forecast

Advertisements
Track Severe Weather on mobile